Davao, Philippines
Current Conditions -  °F | °C
As of 11:00 PM on Thursday 27 Nov 2014 (Local Time) from RPMD Reporting Station
Broken Clouds Broken Clouds  
Wind Chill: 77°   Ceiling: 29000
Heat Index: 78°   Visibility: 5mi
Dew Point: 75°   Wind: 6mph
Humidity: 94%   Direction: 20°NNE
Pressure: 29.83"   Gusts: NA
Location:  7.11°N, 125.63°E
Report Text: RPMD 271500Z 02005KT 8000 FEW016 BKN290 25/24 Q1010 RMK A2983
Loading
Personal Weather Stations






























Interactive Weather Map New forecast layout! Learn more

10-Day Weather Forecast

Advertisements
Track Severe Weather on mobile